Reklaw, Texas
Current Conditions -  °F | °C
As of 9:35 PM on Friday 28 Nov 2014 (Local Time) from KJSO Reporting Station
Clear Clear  
Wind Chill: 57°   Ceiling: Unl
Heat Index: 57°   Visibility: 10mi
Dew Point: 54°   Wind: 13mph
Humidity: 88%   Direction: 180°S
Pressure: 30.1"   Gusts: NA
Location:  31.86°N, 94.98°W
Report Text: KJSO 290335Z AUTO 18011KT 10SM CLR 13/12 A3010 RMK AO2 T01410122
Loading
Personal Weather Stations






























Interactive Weather Map New forecast layout! Learn more

10-Day Weather Forecast

Advertisements
Track Severe Weather on mobile